Mary Ann Moran — WDF4572 — position and weather

sailwx.info

Track history (hours):
 
Tides and Currents Weather Stations Pressure Air Temp Water Temp Dewpoint Dewpoint Depression Visibility Wind Speed Wind Dir Waves Ship Positions

Mary Ann Moran

Owner: MORAN TOWING CORPORATION, NEW CANAAN, CT. More information available from US FCC via Universal Licensing System and Coast Guard Vessel Documentation Center.

Last reported at 2017-May-07 18:47 UTC. Time now 2017-May-28 04:55 UTC.
Position N 25°19' W 080°02'.
Warning: this ship's position is 20 days out of date.

Length 188 m; draft 9 m.

Type: . MMSI: 367453420.

Date/timePositionNaut miles runAvg speedWind from/ knotsBaromVisibWave heightAir tempDewpointWater temp
2017-May-07 18:47N 25°19' W 080°02'2 6.4
2017-May-07 18:30N 25°21' W 080°02'3 6.2
2017-May-07 18:00N 25°24' W 080°02'3 6.2
2017-May-07 17:30N 25°27' W 080°01'3 6.3
2017-May-07 17:01N 25°30' W 080°01'3 6.6
2017-May-07 16:31N 25°33' W 080°01'3 6.7
2017-May-07 16:00N 25°37' W 080°00'3 6.9
2017-May-07 15:30N 25°40' W 079°60'4 7.3
2017-May-07 15:00N 25°44' W 079°59'4 7.4
2017-May-07 14:30N 25°47' W 079°59'8 7.6
2017-May-07 13:30N 25°55' W 079°58'4 7.6
2017-May-07 13:01N 25°59' W 079°58'4 7.5
2017-May-07 12:30N 26°03' W 079°57'4 7.6
2017-May-07 12:01N 26°06' W 079°57'3 6.7
2017-May-07 11:31N 26°10' W 079°57'4 8.3
2017-May-07 11:00N 26°14' W 079°56'4 8.9
2017-May-07 10:31N 26°18' W 079°56'5 9.0
2017-May-07 10:01N 26°23' W 079°55'5 9.0
2017-May-07 09:30N 26°27' W 079°55'5 9.1
2017-May-07 08:59N 26°32' W 079°54'13 8.7
2017-May-07 07:26N 26°45' W 079°53'4 8.4
2017-May-07 07:00N 26°49' W 079°53'4 8.1
2017-May-07 06:30N 26°53' W 079°52'4 7.9
2017-May-07 06:00N 26°57' W 079°52'4 7.7
2017-May-07 05:30N 27°01' W 079°53'  
Track history (hours):
 
Tides and Currents Weather Stations Pressure Air Temp Water Temp Dewpoint Dewpoint Depression Visibility Wind Speed Wind Dir Waves Ship Positions

Mary Ann Moran

Owner: MORAN TOWING CORPORATION, NEW CANAAN, CT. More information available from US FCC via Universal Licensing System and Coast Guard Vessel Documentation Center.

Last reported at 2017-May-07 18:47 UTC. Time now 2017-May-28 04:55 UTC.
Position N 25°19' W 080°02'.
Warning: this ship's position is 20 days out of date.

Length 188 m; draft 9 m.

Type: . MMSI: 367453420.

Date/timePositionNaut miles runAvg speedWind from/ knotsBaromVisibWave heightAir tempDewpointWater temp
2017-May-07 18:47N 25°19' W 080°02'2 6.4
2017-May-07 18:30N 25°21' W 080°02'3 6.2
2017-May-07 18:00N 25°24' W 080°02'3 6.2
2017-May-07 17:30N 25°27' W 080°01'3 6.3
2017-May-07 17:01N 25°30' W 080°01'3 6.6
2017-May-07 16:31N 25°33' W 080°01'3 6.7
2017-May-07 16:00N 25°37' W 080°00'3 6.9
2017-May-07 15:30N 25°40' W 079°60'4 7.3
2017-May-07 15:00N 25°44' W 079°59'4 7.4
2017-May-07 14:30N 25°47' W 079°59'8 7.6
2017-May-07 13:30N 25°55' W 079°58'4 7.6
2017-May-07 13:01N 25°59' W 079°58'4 7.5
2017-May-07 12:30N 26°03' W 079°57'4 7.6
2017-May-07 12:01N 26°06' W 079°57'3 6.7
2017-May-07 11:31N 26°10' W 079°57'4 8.3
2017-May-07 11:00N 26°14' W 079°56'4 8.9
2017-May-07 10:31N 26°18' W 079°56'5 9.0
2017-May-07 10:01N 26°23' W 079°55'5 9.0
2017-May-07 09:30N 26°27' W 079°55'5 9.1
2017-May-07 08:59N 26°32' W 079°54'13 8.7
2017-May-07 07:26N 26°45' W 079°53'4 8.4
2017-May-07 07:00N 26°49' W 079°53'4 8.1
2017-May-07 06:30N 26°53' W 079°52'4 7.9
2017-May-07 06:00N 26°57' W 079°52'4 7.7
2017-May-07 05:30N 27°01' W 079°53'  

Dump ship's entire track history